Time;durP1;ratioP1;P1;durP2;ratioP2;P2;SDS_P1;SDS_P2;PMS_P1;PMS_P2;Temp;Humidity;BMP_temperature;BMP_pressure;BME280_temperature;BME280_humidity;BME280_pressure;Samples;Min_cycle;Max_cycle;Signal;HPM_P1;HPM_P2
2021/04/04 00:02:00;;;;;;;20.70;8.07;;;5.60;99.90;;;;;;5073713;28;20568;-77
2021/04/04 00:04:26;;;;;;;21.17;7.60;;;5.70;99.90;;;;;;5073510;28;20199;-77
2021/04/04 00:06:52;;;;;;;18.83;8.30;;;5.70;99.90;;;;;;5073914;28;20199;-77
2021/04/04 00:09:19;;;;;;;21.63;8.60;;;5.60;99.90;;;;;;5073533;28;20227;-77
2021/04/04 00:11:47;;;;;;;25.27;7.97;;;5.60;99.90;;;;;;5073752;28;20206;-78
2021/04/04 00:14:13;;;;;;;26.60;8.00;;;5.60;99.90;;;;;;5073489;28;20289;-77
2021/04/04 00:16:41;;;;;;;20.53;7.37;;;5.60;99.90;;;;;;5073302;28;20666;-78
2021/04/04 00:19:07;;;;;;;23.20;7.50;;;5.60;99.90;;;;;;5064140;28;20206;-78
2021/04/04 00:21:34;;;;;;;18.37;7.43;;;5.60;99.90;;;;;;5068084;28;20203;-78
2021/04/04 00:24:01;;;;;;;24.80;7.73;;;5.60;99.90;;;;;;5073747;28;20199;-79
2021/04/04 00:26:27;;;;;;;21.90;7.37;;;5.80;99.90;;;;;;5073651;28;20195;-79
2021/04/04 00:28:53;;;;;;;21.93;7.40;;;5.60;99.90;;;;;;5072876;28;20206;-79
2021/04/04 00:31:20;;;;;;;23.77;8.13;;;5.70;99.90;;;;;;5073304;28;20199;-78
2021/04/04 00:33:47;;;;;;;22.77;8.40;;;5.70;99.90;;;;;;5073319;28;20201;-77
2021/04/04 00:36:13;;;;;;;35.17;8.10;;;5.70;99.90;;;;;;5073064;28;20205;-76
2021/04/04 00:38:40;;;;;;;23.67;7.63;;;5.80;99.90;;;;;;5073198;28;20206;-77
2021/04/04 00:41:06;;;;;;;22.87;7.87;;;5.80;99.90;;;;;;5073196;28;20725;-77
2021/04/04 00:43:33;;;;;;;19.13;7.77;;;5.80;99.90;;;;;;5072600;28;20203;-78
2021/04/04 00:45:59;;;;;;;23.47;6.73;;;5.80;99.90;;;;;;5072741;28;20210;-77
2021/04/04 00:48:26;;;;;;;20.03;7.27;;;5.70;99.90;;;;;;5073355;28;20199;-77
2021/04/04 00:50:53;;;;;;;25.13;8.00;;;5.80;99.90;;;;;;5058754;28;20236;-77
2021/04/04 00:53:19;;;;;;;18.00;6.43;;;5.80;99.90;;;;;;5073204;28;20195;-78
2021/04/04 00:55:46;;;;;;;24.23;7.37;;;5.80;99.90;;;;;;5072732;28;20273;-78
2021/04/04 00:58:12;;;;;;;16.83;7.50;;;5.80;99.90;;;;;;5073121;28;20209;-78
2021/04/04 01:00:39;;;;;;;16.83;7.47;;;5.90;99.90;;;;;;5072783;28;20207;-77
2021/04/04 01:03:06;;;;;;;22.00;7.63;;;5.90;99.90;;;;;;5073177;28;20239;-78
2021/04/04 01:05:37;;;;;;;16.30;6.67;;;5.80;99.90;;;;;;5073128;28;20206;-78
2021/04/04 01:08:06;;;;;;;21.93;7.33;;;5.80;99.90;;;;;;5066668;28;20203;-78
2021/04/04 01:10:34;;;;;;;19.57;7.60;;;5.90;99.90;;;;;;5065738;28;20237;-78
2021/04/04 01:13:11;;;;;;;20.40;6.97;;;5.80;99.90;;;;;;5067837;28;20210;-77
2021/04/04 01:15:43;;;;;;;20.33;8.03;;;5.80;99.90;;;;;;5065493;28;20186;-78
2021/04/04 01:18:16;;;;;;;16.93;6.53;;;5.90;99.90;;;;;;5058848;28;20195;-78
2021/04/04 01:20:47;;;;;;;22.03;7.03;;;5.90;99.90;;;;;;5072666;28;20199;-78
2021/04/04 01:23:43;;;;;;;23.37;7.20;;;5.90;99.90;;;;;;5072528;28;20251;-78
2021/04/04 01:26:17;;;;;;;22.97;7.30;;;5.90;99.90;;;;;;5072951;28;20191;-77
2021/04/04 01:28:45;;;;;;;25.43;7.23;;;5.90;99.90;;;;;;5072419;28;20205;-78
2021/04/04 01:31:13;;;;;;;19.00;6.23;;;5.90;99.90;;;;;;5072774;28;20227;-78
2021/04/04 01:33:41;;;;;;;19.80;7.00;;;5.90;99.90;;;;;;5076278;28;20190;-77
2021/04/04 01:36:11;;;;;;;19.50;6.90;;;5.90;99.90;;;;;;5076805;28;20195;-78
2021/04/04 01:38:41;;;;;;;17.90;7.60;;;5.90;99.90;;;;;;5076305;28;20203;-78
2021/04/04 01:41:13;;;;;;;18.23;7.40;;;5.90;99.90;;;;;;5076856;28;20281;-78
2021/04/04 01:43:42;;;;;;;25.20;8.03;;;5.90;99.90;;;;;;5076514;28;20199;-78
2021/04/04 01:46:10;;;;;;;25.57;8.13;;;5.80;99.90;;;;;;5076709;28;20232;-78
2021/04/04 01:48:38;;;;;;;18.53;8.13;;;5.90;99.90;;;;;;5076464;28;20202;-79
2021/04/04 01:51:06;;;;;;;23.57;8.33;;;5.80;99.90;;;;;;5076127;28;20229;-78
2021/04/04 01:53:34;;;;;;;25.57;8.77;;;5.90;99.90;;;;;;5076260;28;20563;-78
2021/04/04 01:56:00;;;;;;;20.30;8.30;;;5.80;99.90;;;;;;5076277;28;20609;-78
2021/04/04 01:58:28;;;;;;;16.67;7.83;;;5.80;99.90;;;;;;5076232;28;20210;-76
2021/04/04 02:00:55;;;;;;;18.63;8.63;;;5.80;99.90;;;;;;5076160;28;20259;-76
2021/04/04 02:03:23;;;;;;;21.13;8.33;;;5.70;99.90;;;;;;5076365;28;20195;-76
2021/04/04 02:05:50;;;;;;;22.57;7.10;;;5.80;99.90;;;;;;5075982;28;20233;-78
2021/04/04 02:08:17;;;;;;;15.90;6.60;;;5.80;99.90;;;;;;5076217;28;20564;-78
2021/04/04 02:10:45;;;;;;;19.50;6.77;;;5.90;99.90;;;;;;5075711;28;20229;-79
2021/04/04 02:13:13;;;;;;;18.20;7.07;;;5.80;99.90;;;;;;5075857;28;20210;-78
2021/04/04 02:15:40;;;;;;;16.30;6.10;;;5.80;99.90;;;;;;5075953;28;20195;-78
2021/04/04 02:18:08;;;;;;;17.30;6.77;;;5.70;99.90;;;;;;5075930;28;20237;-77
2021/04/04 02:20:37;;;;;;;21.30;5.70;;;5.80;99.90;;;;;;5068881;28;20204;-77
2021/04/04 02:23:07;;;;;;;13.70;6.43;;;5.80;99.90;;;;;;5069028;28;20205;-79
2021/04/04 02:25:33;;;;;;;15.33;6.17;;;5.80;99.90;;;;;;5073924;28;20195;-79
2021/04/04 02:28:00;;;;;;;16.97;5.70;;;5.90;99.90;;;;;;5074956;28;20211;-79
2021/04/04 02:30:27;;;;;;;19.20;7.17;;;5.90;99.90;;;;;;5075671;28;20264;-79
2021/04/04 02:33:00;;;;;;;16.17;6.47;;;5.90;99.90;;;;;;5075749;28;20203;-79
2021/04/04 02:35:31;;;;;;;15.17;6.30;;;5.90;99.90;;;;;;5075240;28;20646;-77
2021/04/04 02:38:01;;;;;;;19.00;6.60;;;5.90;99.90;;;;;;5075298;28;20210;-76
2021/04/04 02:40:28;;;;;;;13.03;5.33;;;5.80;99.90;;;;;;5075165;28;20203;-76
2021/04/04 02:42:56;;;;;;;18.53;6.10;;;5.80;99.90;;;;;;5074888;28;20706;-76
2021/04/04 02:45:24;;;;;;;14.00;5.43;;;5.80;99.90;;;;;;5060492;28;20200;-76
2021/04/04 02:47:57;;;;;;;16.77;5.97;;;5.80;99.90;;;;;;5075188;28;20244;-77
2021/04/04 02:50:25;;;;;;;23.23;6.00;;;5.70;99.90;;;;;;5075128;28;20221;-77
2021/04/04 02:52:53;;;;;;;13.20;5.83;;;5.80;99.90;;;;;;5075063;28;20690;-77
2021/04/04 02:55:23;;;;;;;12.57;5.13;;;5.80;99.90;;;;;;5066182;28;20677;-77
2021/04/04 02:57:52;;;;;;;19.27;6.10;;;5.80;99.90;;;;;;5074085;28;20213;-76
2021/04/04 03:00:20;;;;;;;18.43;5.57;;;5.80;99.90;;;;;;5074780;28;20620;-78
2021/04/04 03:02:47;;;;;;;19.27;6.67;;;5.80;99.90;;;;;;5074934;28;20646;-77
2021/04/04 03:05:15;;;;;;;15.77;5.87;;;5.80;99.90;;;;;;5074889;28;20203;-77
2021/04/04 03:07:43;;;;;;;17.80;6.03;;;5.80;99.90;;;;;;5074802;28;20199;-78
2021/04/04 03:10:11;;;;;;;14.50;5.23;;;5.70;99.90;;;;;;5075061;28;20229;-76
2021/04/04 03:12:40;;;;;;;25.23;5.73;;;5.80;99.90;;;;;;5060592;28;20340;-76
2021/04/04 03:15:11;;;;;;;18.17;5.63;;;5.80;99.90;;;;;;5074984;28;20198;-77
2021/04/04 03:17:41;;;;;;;20.17;5.67;;;5.80;99.90;;;;;;5072276;28;20203;-76
2021/04/04 03:20:10;;;;;;;17.67;5.87;;;5.80;99.90;;;;;;5063941;28;20228;-77
2021/04/04 03:22:39;;;;;;;16.07;5.67;;;5.80;99.90;;;;;;5074795;28;20207;-77
2021/04/04 03:25:08;;;;;;;16.80;4.90;;;5.80;99.90;;;;;;5074791;28;20209;-77
2021/04/04 03:27:36;;;;;;;19.63;5.80;;;5.80;99.90;;;;;;5074543;28;20209;-77
2021/04/04 03:30:05;;;;;;;17.13;5.87;;;5.80;99.90;;;;;;5074408;28;20229;-77
2021/04/04 03:32:33;;;;;;;18.67;6.50;;;5.80;99.90;;;;;;5074542;28;20601;-77
2021/04/04 03:35:00;;;;;;;14.00;4.87;;;5.80;99.90;;;;;;5074110;28;20315;-77
2021/04/04 03:37:28;;;;;;;17.67;6.30;;;5.80;99.90;;;;;;5074294;28;20676;-76
2021/04/04 03:39:54;;;;;;;13.80;5.43;;;5.90;99.90;;;;;;5074112;28;20565;-76
2021/04/04 03:42:21;;;;;;;16.70;5.83;;;5.90;99.90;;;;;;5074496;28;20199;-76
2021/04/04 03:44:48;;;;;;;20.17;5.27;;;5.80;99.90;;;;;;5074155;28;20199;-77
2021/04/04 03:47:15;;;;;;;14.57;5.50;;;5.90;99.90;;;;;;5074350;28;20286;-77
2021/04/04 03:49:43;;;;;;;12.60;5.63;;;5.90;99.90;;;;;;5074111;28;20226;-77
2021/04/04 03:52:10;;;;;;;16.57;4.70;;;5.90;99.90;;;;;;5074470;28;20206;-77
2021/04/04 03:54:37;;;;;;;17.80;5.27;;;5.90;99.90;;;;;;5074058;28;20248;-77
2021/04/04 03:57:05;;;;;;;17.77;5.73;;;5.90;99.90;;;;;;5073911;28;20216;-77
2021/04/04 03:59:33;;;;;;;16.20;5.00;;;5.90;99.90;;;;;;5074146;28;20229;-77
2021/04/04 04:02:01;;;;;;;21.60;5.53;;;5.90;99.90;;;;;;5073993;28;20233;-77
2021/04/04 04:04:29;;;;;;;14.23;5.93;;;5.90;99.90;;;;;;5073703;28;20199;-77
2021/04/04 04:06:57;;;;;;;17.67;5.43;;;5.80;99.90;;;;;;5073409;28;20230;-77
2021/04/04 04:09:24;;;;;;;18.30;5.67;;;5.80;99.90;;;;;;5074081;28;20203;-77
2021/04/04 04:11:53;;;;;;;16.93;5.40;;;5.90;99.90;;;;;;5073446;28;20243;-77
2021/04/04 04:14:21;;;;;;;16.80;6.20;;;6.00;99.90;;;;;;5073560;28;20285;-77
2021/04/04 04:16:48;;;;;;;16.97;5.33;;;5.90;99.90;;;;;;5073822;28;20206;-77
2021/04/04 04:19:16;;;;;;;14.17;5.33;;;5.90;99.90;;;;;;5073436;28;20259;-77
2021/04/04 04:21:44;;;;;;;16.80;6.37;;;5.90;99.90;;;;;;5073636;28;20206;-77
2021/04/04 04:24:14;;;;;;;23.90;6.90;;;5.90;99.90;;;;;;5073492;28;20205;-76
2021/04/04 04:26:43;;;;;;;21.23;7.40;;;6.00;99.90;;;;;;5073636;28;20198;-76
2021/04/04 04:29:11;;;;;;;17.90;6.10;;;5.90;99.90;;;;;;5073332;28;20199;-76
2021/04/04 04:31:41;;;;;;;14.53;6.20;;;5.90;99.90;;;;;;5073321;28;20230;-76
2021/04/04 04:34:09;;;;;;;19.50;6.73;;;5.90;99.90;;;;;;5073263;28;20195;-77
2021/04/04 04:36:37;;;;;;;24.77;7.60;;;5.80;99.90;;;;;;5073460;28;20290;-77
2021/04/04 04:39:07;;;;;;;18.53;7.33;;;5.80;99.90;;;;;;5073332;28;20209;-78
2021/04/04 04:41:37;;;;;;;20.97;6.93;;;5.80;99.90;;;;;;5073201;28;20241;-77
2021/04/04 04:44:06;;;;;;;19.23;6.90;;;5.80;99.90;;;;;;5060663;28;20558;-80
2021/04/04 04:46:33;;;;;;;19.47;7.00;;;5.80;99.90;;;;;;5071894;28;20198;-77
2021/04/04 04:49:00;;;;;;;17.27;7.20;;;5.80;99.90;;;;;;5073253;28;20286;-77
2021/04/04 04:51:27;;;;;;;17.83;6.70;;;5.80;99.90;;;;;;5072771;28;20754;-77
2021/04/04 04:53:54;;;;;;;16.90;7.30;;;5.80;99.90;;;;;;5073183;28;20285;-77
2021/04/04 04:56:22;;;;;;;17.63;6.37;;;5.90;99.90;;;;;;5072591;28;20199;-77
2021/04/04 04:58:48;;;;;;;23.83;7.40;;;5.90;99.90;;;;;;5072876;28;20224;-77
2021/04/04 05:01:18;;;;;;;15.30;7.10;;;5.80;99.90;;;;;;5073065;28;20206;-77
2021/04/04 05:03:47;;;;;;;18.40;6.47;;;5.90;99.90;;;;;;5072593;28;20198;-77
2021/04/04 05:06:14;;;;;;;17.37;6.23;;;6.00;99.90;;;;;;5073085;28;20289;-76
2021/04/04 05:08:43;;;;;;;14.67;6.10;;;5.90;99.90;;;;;;5072623;28;20202;-77
2021/04/04 05:11:13;;;;;;;23.03;7.17;;;6.00;99.90;;;;;;5073246;28;20218;-76
2021/04/04 05:13:41;;;;;;;15.67;5.67;;;5.90;99.90;;;;;;5072922;28;20344;-75
2021/04/04 05:16:09;;;;;;;19.50;5.97;;;5.90;99.90;;;;;;5059411;28;20295;-76
2021/04/04 05:18:36;;;;;;;21.20;6.30;;;5.90;99.90;;;;;;5072893;28;20252;-77
2021/04/04 05:21:03;;;;;;;24.80;7.77;;;6.00;99.90;;;;;;5072451;28;20297;-77
2021/04/04 05:23:30;;;;;;;17.27;7.30;;;5.90;99.90;;;;;;5072888;28;20309;-77
2021/04/04 05:25:56;;;;;;;17.10;7.50;;;6.00;99.90;;;;;;5072743;28;20190;-77
2021/04/04 05:28:23;;;;;;;18.87;8.70;;;6.00;99.90;;;;;;5072342;28;20543;-77
2021/04/04 05:30:51;;;;;;;18.13;8.70;;;5.90;99.90;;;;;;5072546;28;20222;-78
2021/04/04 05:33:17;;;;;;;17.03;7.77;;;5.80;99.90;;;;;;5072804;28;20255;-77
2021/04/04 05:35:44;;;;;;;18.57;7.83;;;5.90;99.90;;;;;;5072629;28;20195;-77
2021/04/04 05:38:11;;;;;;;16.27;8.00;;;5.90;99.90;;;;;;5072586;28;20199;-77
2021/04/04 05:40:38;;;;;;;17.97;8.90;;;5.90;99.90;;;;;;5072385;28;20562;-77
2021/04/04 05:43:11;;;;;;;19.30;9.43;;;5.90;99.90;;;;;;5072534;28;20277;-78
2021/04/04 05:45:43;;;;;;;22.10;8.60;;;5.90;99.90;;;;;;5061840;28;20200;-77
2021/04/04 05:48:34;;;;;;;26.30;10.20;;;5.90;99.90;;;;;;5070856;28;20223;-77
2021/04/04 05:51:13;;;;;;;22.00;9.77;;;6.00;99.90;;;;;;5072284;28;20598;-77
2021/04/04 05:53:51;;;;;;;20.20;9.37;;;6.00;99.90;;;;;;5060010;28;20198;-77
2021/04/04 05:56:24;;;;;;;19.03;9.03;;;6.00;99.90;;;;;;5071968;28;20205;-77
2021/04/04 05:58:58;;;;;;;16.00;8.90;;;6.00;99.90;;;;;;5072617;28;20644;-77
2021/04/04 06:01:42;;;;;;;22.30;9.80;;;6.00;99.90;;;;;;5072327;28;20248;-78
2021/04/04 06:04:23;;;;;;;18.17;8.87;;;6.10;99.90;;;;;;5068230;28;20598;-78
2021/04/04 06:07:31;;;;;;;16.80;8.53;;;6.10;99.90;;;;;;5072661;28;20241;-76
2021/04/04 06:10:05;;;;;;;18.77;10.00;;;6.10;99.90;;;;;;5064084;28;20211;-76
2021/04/04 06:12:54;;;;;;;22.00;8.43;;;6.20;99.90;;;;;;5072415;28;20202;-79
2021/04/04 06:15:26;;;;;;;22.07;9.23;;;6.10;99.90;;;;;;5072135;28;20285;-78
2021/04/04 06:18:05;;;;;;;18.70;8.90;;;6.20;99.90;;;;;;5059394;28;20552;-78
2021/04/04 06:20:43;;;;;;;17.77;8.23;;;6.30;99.90;;;;;;5075805;28;20289;-78
2021/04/04 06:23:18;;;;;;;20.37;8.57;;;6.30;99.90;;;;;;5075998;28;20202;-78
2021/04/04 06:25:57;;;;;;;23.70;9.60;;;6.30;99.90;;;;;;5075498;28;20256;-77
2021/04/04 06:28:40;;;;;;;17.27;8.73;;;6.30;99.90;;;;;;5075588;28;20680;-78
2021/04/04 06:31:17;;;;;;;18.73;9.13;;;6.30;99.90;;;;;;5075355;28;20221;-78
2021/04/04 06:33:52;;;;;;;21.97;9.17;;;6.30;99.90;;;;;;5075756;28;20263;-78
2021/04/04 06:36:30;;;;;;;17.30;9.07;;;6.30;99.90;;;;;;5076214;28;20197;-79
2021/04/04 06:39:11;;;;;;;18.97;8.80;;;6.40;99.90;;;;;;5075510;28;20194;-79
2021/04/04 06:41:50;;;;;;;20.53;9.40;;;6.30;99.90;;;;;;5075569;28;20293;-79
2021/04/04 06:44:26;;;;;;;16.87;9.10;;;6.40;99.90;;;;;;5075314;28;20195;-82
2021/04/04 06:46:59;;;;;;;17.23;9.63;;;6.50;99.90;;;;;;5075553;28;20202;-79
2021/04/04 06:49:43;;;;;;;18.73;9.43;;;6.50;99.90;;;;;;5075017;28;20650;-79
2021/04/04 06:52:30;;;;;;;18.63;9.73;;;6.60;99.90;;;;;;5075450;28;20203;-77
2021/04/04 06:55:05;;;;;;;23.50;9.20;;;6.60;99.90;;;;;;5075370;28;20195;-78
2021/04/04 06:57:50;;;;;;;23.03;9.67;;;6.70;99.90;;;;;;5075450;28;20295;-78
2021/04/04 07:00:23;;;;;;;15.60;8.80;;;6.70;99.90;;;;;;5075170;28;20191;-77
2021/04/04 07:02:59;;;;;;;22.40;9.20;;;6.80;99.90;;;;;;5075303;28;20308;-77
2021/04/04 07:05:30;;;;;;;20.23;9.10;;;6.80;99.90;;;;;;5072366;28;20196;-77
2021/04/04 07:08:04;;;;;;;26.27;10.13;;;6.70;99.90;;;;;;5064243;28;20283;-78
2021/04/04 07:10:39;;;;;;;21.27;9.87;;;6.70;99.90;;;;;;5075011;28;20310;-77
2021/04/04 07:13:21;;;;;;;18.63;9.13;;;6.80;99.90;;;;;;5074740;28;20248;-77
2021/04/04 07:16:07;;;;;;;21.53;9.27;;;6.80;99.90;;;;;;5074397;28;20187;-78
2021/04/04 07:19:01;;;;;;;23.57;10.40;;;6.90;99.90;;;;;;5074630;28;20247;-77
2021/04/04 07:21:43;;;;;;;18.87;8.93;;;6.90;99.90;;;;;;5062653;28;20670;-76
2021/04/04 07:24:19;;;;;;;17.03;8.97;;;7.00;99.90;;;;;;5074553;28;20256;-78
2021/04/04 07:26:58;;;;;;;18.10;9.47;;;7.00;99.90;;;;;;5074529;28;20222;-78
2021/04/04 07:29:52;;;;;;;23.83;9.63;;;7.10;99.90;;;;;;5073618;28;20187;-78
2021/04/04 07:32:21;;;;;;;20.63;8.93;;;7.10;99.90;;;;;;5074570;28;20244;-77
2021/04/04 07:34:54;;;;;;;21.13;10.37;;;7.20;99.90;;;;;;5060185;28;20281;-77
2021/04/04 07:37:39;;;;;;;18.90;10.20;;;7.10;99.90;;;;;;5074267;28;20199;-77
2021/04/04 07:40:14;;;;;;;22.33;9.67;;;7.20;99.90;;;;;;5054190;28;20207;-77
2021/04/04 07:42:48;;;;;;;15.33;9.60;;;7.20;99.90;;;;;;5055038;28;20600;-77
2021/04/04 07:45:20;;;;;;;23.13;10.80;;;7.20;99.90;;;;;;5074383;28;20267;-77
2021/04/04 07:47:54;;;;;;;21.53;10.40;;;7.40;99.90;;;;;;5073819;28;20195;-77
2021/04/04 07:50:27;;;;;;;25.17;10.67;;;7.40;99.90;;;;;;5073857;28;20218;-78
2021/04/04 07:53:03;;;;;;;20.37;11.87;;;7.40;99.90;;;;;;5073497;28;20194;-77
2021/04/04 07:55:38;;;;;;;23.90;11.03;;;7.50;99.90;;;;;;5075521;28;20202;-77
2021/04/04 07:58:12;;;;;;;18.90;9.87;;;7.40;99.90;;;;;;5074685;28;20202;-77
2021/04/04 08:00:46;;;;;;;28.17;12.47;;;7.50;99.90;;;;;;5074230;28;20202;-78
2021/04/04 08:03:20;;;;;;;24.97;12.10;;;7.50;99.90;;;;;;5073488;28;20210;-77
2021/04/04 08:05:49;;;;;;;28.13;13.03;;;7.50;99.90;;;;;;5073634;28;20195;-79
2021/04/04 08:08:20;;;;;;;26.60;14.53;;;7.50;99.90;;;;;;5073482;28;20216;-78
2021/04/04 08:10:58;;;;;;;31.90;15.17;;;7.50;99.90;;;;;;5073483;28;20217;-78
2021/04/04 08:13:31;;;;;;;34.07;14.67;;;7.50;99.90;;;;;;5073268;28;20203;-78
2021/04/04 08:16:07;;;;;;;28.83;16.03;;;7.60;99.90;;;;;;5073296;28;20199;-79
2021/04/04 08:18:34;;;;;;;28.70;16.47;;;7.60;99.90;;;;;;5073627;28;20195;-79
2021/04/04 08:21:04;;;;;;;29.53;15.90;;;7.70;99.90;;;;;;5073146;28;20202;-79
2021/04/04 08:23:36;;;;;;;26.93;15.37;;;7.70;99.90;;;;;;5073440;28;20203;-79
2021/04/04 08:26:06;;;;;;;28.97;16.33;;;7.80;99.90;;;;;;5072858;28;20195;-78
2021/04/04 08:28:40;;;;;;;28.53;15.77;;;8.00;99.90;;;;;;5073374;28;20195;-76
2021/04/04 08:31:12;;;;;;;31.97;15.43;;;7.90;99.90;;;;;;5072625;28;20226;-76
2021/04/04 08:33:45;;;;;;;26.17;15.33;;;8.00;99.90;;;;;;5073822;28;20191;-76
2021/04/04 08:36:17;;;;;;;26.43;14.40;;;7.90;99.90;;;;;;5072818;28;20717;-79
2021/04/04 08:38:46;;;;;;;33.83;15.97;;;7.90;99.90;;;;;;5072905;28;20226;-78
2021/04/04 08:41:17;;;;;;;33.50;16.43;;;8.10;99.90;;;;;;5072473;28;20207;-78
2021/04/04 08:43:50;;;;;;;36.07;20.67;;;8.20;99.90;;;;;;5072724;28;20206;-78
2021/04/04 08:46:25;;;;;;;30.23;20.60;;;8.30;99.90;;;;;;5073287;28;20194;-78
2021/04/04 08:48:53;;;;;;;28.93;20.20;;;8.30;99.90;;;;;;5073360;28;20200;-78
2021/04/04 08:51:24;;;;;;;35.30;21.37;;;8.20;99.90;;;;;;5073167;28;20222;-78
2021/04/04 08:53:52;;;;;;;32.43;20.87;;;8.20;99.90;;;;;;5060367;28;20206;-80
2021/04/04 08:56:21;;;;;;;34.13;21.43;;;8.30;99.90;;;;;;5072403;28;20198;-78
2021/04/04 08:58:51;;;;;;;38.97;23.33;;;8.20;99.90;;;;;;5075868;28;20234;-78
2021/04/04 09:01:24;;;;;;;34.47;23.23;;;8.10;99.90;;;;;;5081228;28;20202;-79
2021/04/04 09:03:54;;;;;;;38.07;24.30;;;8.10;99.90;;;;;;5080176;28;20289;-78
2021/04/04 09:06:21;;;;;;;44.93;24.50;;;8.00;99.90;;;;;;5087751;28;20205;-78
2021/04/04 09:08:50;;;;;;;39.90;23.60;;;8.00;99.90;;;;;;5087106;28;20247;-79
2021/04/04 09:11:17;;;;;;;36.80;25.37;;;8.00;99.90;;;;;;5080858;28;20337;-78
2021/04/04 09:13:45;;;;;;;39.87;24.80;;;8.30;99.90;;;;;;5070925;28;20756;-78
2021/04/04 09:16:14;;;;;;;37.67;25.03;;;8.20;99.90;;;;;;5071127;28;20194;-78
2021/04/04 09:18:45;;;;;;;35.70;24.20;;;8.30;99.90;;;;;;5071950;28;20256;-78
2021/04/04 09:21:12;;;;;;;33.40;21.93;;;8.10;99.90;;;;;;5072325;28;20230;-79
2021/04/04 09:23:40;;;;;;;35.37;23.50;;;8.20;99.90;;;;;;5072778;28;20285;-79
2021/04/04 09:26:08;;;;;;;36.83;23.27;;;8.30;99.90;;;;;;5072115;28;20305;-78
2021/04/04 09:28:37;;;;;;;40.37;23.73;;;8.40;99.90;;;;;;5072487;28;20658;-78
2021/04/04 09:31:07;;;;;;;38.10;23.20;;;8.60;99.90;;;;;;5072174;28;20225;-78
2021/04/04 09:33:35;;;;;;;41.13;23.63;;;8.60;99.90;;;;;;5072968;28;20199;-78
2021/04/04 09:36:04;;;;;;;33.00;23.13;;;8.60;99.90;;;;;;5072460;28;20199;-78
2021/04/04 09:38:36;;;;;;;36.03;23.37;;;8.60;99.90;;;;;;5072329;28;20282;-78
2021/04/04 09:41:04;;;;;;;35.93;23.97;;;8.60;99.90;;;;;;5072601;28;20203;-78
2021/04/04 09:43:37;;;;;;;32.63;23.17;;;8.70;99.90;;;;;;5061404;28;20210;-79
2021/04/04 09:46:06;;;;;;;36.27;24.77;;;8.70;99.90;;;;;;5075297;28;20894;-78
2021/04/04 09:48:39;;;;;;;32.33;23.83;;;8.70;99.90;;;;;;5076013;28;20658;-78
2021/04/04 09:51:08;;;;;;;37.80;23.47;;;8.80;99.90;;;;;;5076106;28;20228;-79
2021/04/04 09:53:37;;;;;;;32.90;23.87;;;8.80;99.90;;;;;;5079035;28;20198;-78
2021/04/04 09:56:11;;;;;;;42.17;25.07;;;8.70;99.90;;;;;;5079958;28;20233;-79
2021/04/04 09:58:41;;;;;;;46.50;25.80;;;8.90;99.90;;;;;;5082108;28;20206;-79
2021/04/04 10:01:17;;;;;;;35.87;24.17;;;8.80;99.90;;;;;;5080532;28;20213;-78
2021/04/04 10:03:58;;;;;;;31.20;22.73;;;8.90;99.90;;;;;;5080733;28;20295;-79
2021/04/04 10:06:25;;;;;;;33.10;22.00;;;8.90;99.90;;;;;;5079731;28;20657;-79
2021/04/04 10:08:56;;;;;;;34.37;23.23;;;8.90;99.90;;;;;;5079915;28;20668;-77
2021/04/04 10:11:23;;;;;;;31.97;23.07;;;9.00;99.90;;;;;;5080582;28;20321;-79
2021/04/04 10:13:49;;;;;;;41.93;25.10;;;9.00;99.90;;;;;;5078406;28;20685;-79
2021/04/04 10:16:22;;;;;;;33.00;22.73;;;9.00;99.90;;;;;;5080077;28;20733;-80
2021/04/04 10:19:02;;;;;;;33.37;22.90;;;9.10;99.90;;;;;;5080006;28;20300;-79
2021/04/04 10:21:29;;;;;;;30.47;21.80;;;9.00;99.90;;;;;;5079958;28;20662;-78
2021/04/04 10:23:55;;;;;;;33.50;21.10;;;9.10;99.90;;;;;;5079481;28;20665;-79
2021/04/04 10:26:23;;;;;;;35.00;22.83;;;9.10;99.90;;;;;;5080569;28;20360;-79
2021/04/04 10:28:53;;;;;;;34.10;22.97;;;9.10;99.90;;;;;;5080769;28;20206;-77
2021/04/04 10:31:22;;;;;;;38.53;24.07;;;8.70;99.90;;;;;;5080271;28;20227;-77
2021/04/04 10:33:59;;;;;;;33.40;24.67;;;8.70;99.90;;;;;;5081082;28;20224;-78
2021/04/04 10:36:27;;;;;;;35.70;24.17;;;8.60;99.90;;;;;;5080102;28;20206;-79
2021/04/04 10:38:54;;;;;;;37.30;25.33;;;8.80;99.90;;;;;;5080808;28;20673;-78
2021/04/04 10:41:28;;;;;;;33.67;21.87;;;9.00;99.90;;;;;;5079688;28;20293;-77
2021/04/04 10:43:54;;;;;;;28.13;21.47;;;9.10;99.90;;;;;;5077383;28;20584;-79
2021/04/04 10:46:26;;;;;;;34.83;21.40;;;9.20;99.90;;;;;;5079509;28;20206;-76
2021/04/04 10:48:53;;;;;;;36.17;22.13;;;9.30;99.90;;;;;;5080811;28;20202;-77
2021/04/04 10:51:21;;;;;;;32.57;22.27;;;9.40;99.90;;;;;;5080148;28;20241;-76
2021/04/04 10:53:48;;;;;;;36.33;22.33;;;9.10;99.90;;;;;;5080275;28;20206;-77
2021/04/04 10:56:16;;;;;;;36.43;22.10;;;9.10;99.90;;;;;;5079553;28;20549;-78
2021/04/04 10:58:43;;;;;;;31.40;21.03;;;9.00;99.90;;;;;;5079896;28;20222;-78
2021/04/04 11:01:12;;;;;;;28.70;21.63;;;9.00;99.90;;;;;;5079218;28;20904;-78
2021/04/04 11:03:41;;;;;;;31.77;21.77;;;8.90;99.90;;;;;;5079411;28;20575;-79
2021/04/04 11:06:08;;;;;;;30.20;22.23;;;9.10;99.90;;;;;;5079710;28;20207;-78
2021/04/04 11:08:35;;;;;;;35.77;22.70;;;9.20;99.90;;;;;;5078674;28;20262;-79
2021/04/04 11:11:02;;;;;;;31.60;22.00;;;9.20;99.90;;;;;;5079709;28;20235;-78
2021/04/04 11:13:29;;;;;;;33.10;22.20;;;9.40;99.90;;;;;;5080080;28;20199;-79
2021/04/04 11:15:57;;;;;;;31.97;22.83;;;9.40;99.90;;;;;;5079284;28;20202;-79
2021/04/04 11:18:30;;;;;;;30.10;22.10;;;9.40;99.90;;;;;;5079406;28;20282;-79
2021/04/04 11:21:01;;;;;;;30.80;20.93;;;9.30;99.90;;;;;;5079282;28;20205;-79
2021/04/04 11:23:28;;;;;;;34.13;21.50;;;9.30;99.90;;;;;;5078397;28;20826;-80
2021/04/04 11:25:55;;;;;;;34.10;21.67;;;9.40;99.90;;;;;;5080498;28;20194;-79
2021/04/04 11:28:24;;;;;;;31.10;20.20;;;9.40;99.90;;;;;;5079671;28;20198;-79
2021/04/04 11:30:51;;;;;;;27.83;18.50;;;9.30;99.90;;;;;;5079364;28;20244;-78
2021/04/04 11:33:29;;;;;;;31.43;18.57;;;9.40;99.90;;;;;;5079883;28;20206;-78
2021/04/04 11:36:14;;;;;;;23.30;15.90;;;9.30;99.90;;;;;;5078227;28;20194;-79
2021/04/04 11:39:08;;;;;;;26.23;17.40;;;9.30;99.90;;;;;;5077759;28;20202;-78
2021/04/04 11:41:46;;;;;;;23.80;16.80;;;9.50;99.90;;;;;;5078460;28;20658;-78
2021/04/04 11:44:27;;;;;;;24.13;15.47;;;9.60;99.90;;;;;;5077879;28;20250;-79
2021/04/04 11:46:55;;;;;;;27.83;16.57;;;9.60;99.90;;;;;;5079431;28;20247;-78
2021/04/04 11:49:48;;;;;;;24.70;15.20;;;9.60;99.90;;;;;;5079023;28;20221;-78
2021/04/04 11:52:38;;;;;;;25.13;16.40;;;9.60;99.90;;;;;;5078895;28;21349;-78
2021/04/04 11:55:06;;;;;;;30.60;15.97;;;9.60;99.90;;;;;;5079764;28;20222;-78
2021/04/04 11:57:34;;;;;;;25.07;15.17;;;9.50;99.90;;;;;;5078827;28;20352;-78
2021/04/04 12:00:04;;;;;;;26.03;14.17;;;9.40;99.90;;;;;;5078703;28;20298;-78
2021/04/04 12:02:31;;;;;;;19.53;12.60;;;9.30;99.90;;;;;;5078349;28;20238;-78
2021/04/04 12:05:02;;;;;;;23.23;13.37;;;9.50;99.90;;;;;;5077779;28;20256;-78
2021/04/04 12:07:29;;;;;;;20.63;11.90;;;9.50;99.90;;;;;;5077769;28;20199;-77
2021/04/04 12:09:58;;;;;;;21.23;11.73;;;9.40;99.90;;;;;;5078923;28;20741;-79
2021/04/04 12:12:31;;;;;;;22.73;11.67;;;9.30;99.90;;;;;;5077687;28;20232;-78
2021/04/04 12:15:00;;;;;;;19.03;11.17;;;9.30;99.90;;;;;;5078637;28;20194;-78
2021/04/04 12:17:28;;;;;;;24.40;11.00;;;9.30;99.90;;;;;;5078180;28;20269;-77
2021/04/04 12:19:54;;;;;;;20.70;10.93;;;9.30;99.90;;;;;;5078523;28;20209;-77
2021/04/04 12:22:33;;;;;;;23.57;11.17;;;9.40;99.90;;;;;;5077824;28;20696;-77
2021/04/04 12:25:01;;;;;;;18.23;11.10;;;9.60;99.90;;;;;;5079038;28;20198;-78
2021/04/04 12:27:28;;;;;;;16.87;11.13;;;9.50;99.90;;;;;;5076691;28;20305;-78
2021/04/04 12:29:57;;;;;;;17.30;10.53;;;9.40;99.90;;;;;;5078197;28;20217;-78
2021/04/04 12:32:24;;;;;;;19.57;10.93;;;9.50;99.90;;;;;;5078206;28;20697;-78
2021/04/04 12:34:52;;;;;;;23.03;11.33;;;9.50;99.90;;;;;;5075831;28;20212;-80
2021/04/04 12:37:20;;;;;;;19.93;11.07;;;9.60;99.90;;;;;;5078133;28;20202;-80
2021/04/04 12:39:47;;;;;;;20.77;11.50;;;9.70;99.90;;;;;;5078139;28;20669;-83
2021/04/04 12:42:16;;;;;;;19.30;11.23;;;9.90;99.90;;;;;;5077617;28;20203;-81
2021/04/04 12:44:44;;;;;;;16.33;11.37;;;9.80;99.90;;;;;;5079356;28;20202;-77
2021/04/04 12:47:13;;;;;;;22.03;11.50;;;9.80;99.90;;;;;;5077439;28;20202;-78
2021/04/04 12:49:40;;;;;;;17.50;10.50;;;9.70;99.90;;;;;;5076261;28;20625;-80
2021/04/04 12:52:08;;;;;;;15.20;10.80;;;9.90;99.90;;;;;;5077665;28;21225;-77
2021/04/04 12:54:34;;;;;;;20.77;10.83;;;9.90;99.90;;;;;;5077230;28;20212;-77
2021/04/04 12:57:01;;;;;;;19.17;10.53;;;10.10;99.90;;;;;;5078355;28;20262;-76
2021/04/04 12:59:29;;;;;;;19.87;10.63;;;9.90;99.90;;;;;;5077259;28;20573;-77
2021/04/04 13:01:55;;;;;;;20.33;9.63;;;10.00;99.90;;;;;;5077016;28;20210;-78